This is the latest recevied weather packets stored in our database for station/object KY4OP-13. If no packets are shown the sender has not sent any weather packets the latest 1 day(s).
| Time | Temp. | Humidity | Pressure | Rain* | Wind** | Luminosity | Snow |
|---|---|---|---|---|---|---|---|
| 1777988321 | 20.56° C | 58% | 1015 hPa | 0 mm | 0.45 m/s, 209° | - | - |
| 1777988018 | 19.44° C | 62% | 1015 hPa | 0 mm | 0.45 m/s, 101° | - | - |
| 1777987713 | 18.89° C | 61% | 1015 hPa | 0 mm | 0.89 m/s, 226° | - | - |
| 1777987411 | 18.33° C | 64% | 1015.2 hPa | 0 mm | 0.89 m/s, 246° | - | - |
| 1777987108 | 18.33° C | 62% | 1015.2 hPa | 0 mm | 0.89 m/s, 233° | - | - |
| 1777986805 | 17.78° C | 64% | 1015.2 hPa | 0 mm | 0 m/s | - | - |
| 1777986503 | 17.22° C | 64% | 1015.2 hPa | 0 mm | 0 m/s | - | - |
| 1777986201 | 16.67° C | 65% | 1015.1 hPa | 0 mm | 1.34 m/s, 208° | - | - |
| 1777985898 | 16.11° C | 64% | 1015.1 hPa | 0 mm | 2.68 m/s, 203° | - | - |
| 1777985595 | 16.11° C | 66% | 1015.2 hPa | 0 mm | 1.79 m/s, 213° | - | - |
| 1777985291 | 15.56° C | 67% | 1015.3 hPa | 0 mm | 0.89 m/s, 230° | - | - |
| 1777984988 | 15.56° C | 68% | 1015.3 hPa | 0 mm | 1.79 m/s, 207° | - | - |
| 1777984684 | 15° C | 69% | 1015.3 hPa | 0 mm | 0.89 m/s, 199° | - | - |
| 1777984381 | 15° C | 70% | 1015.3 hPa | 0 mm | 0.89 m/s, 214° | - | - |
| 1777984077 | 14.44° C | 72% | 1015.5 hPa | 0 mm | 0 m/s | - | - |
| 1777983775 | 14.44° C | 71% | 1015.6 hPa | 0 mm | 1.34 m/s, 220° | - | - |
| 1777983471 | 14.44° C | 74% | 1015.5 hPa | 0 mm | 0 m/s | - | - |
| 1777983168 | 14.44° C | 73% | 1015.5 hPa | 0 mm | 0.45 m/s, 218° | - | - |
| 1777982864 | 13.89° C | 74% | 1015.4 hPa | 0 mm | 0.45 m/s, 206° | - | - |
| 1777982560 | 13.89° C | 75% | 1015.2 hPa | 0 mm | 0.89 m/s, 207° | - | - |
| 1777982259 | 13.33° C | 77% | 1015.2 hPa | 0 mm | 0 m/s | - | - |
| 1777981957 | 12.78° C | 77% | 1015 hPa | 0 mm | 0 m/s | - | - |
| 1777981654 | 12.78° C | 77% | 1015.2 hPa | 0 mm | 0 m/s | - | - |
| 1777981359 | 13.33° C | 77% | 1015.4 hPa | 0 mm | 0 m/s | - | - |
| 1777981047 | 13.33° C | 77% | 1015.3 hPa | 0 mm | 0 m/s | - | - |
* Rain latest hour (hover to see other rain measurements)
** Current wind speed in m/s (hover to see current wind gust speed)